Skip Navigation LinksHome page > Weather > Current weather Skip Navigation Links

Current Weather

Ndjamena, Chad

For information only: do not use for flight planning or navigation.
Latest weather
Observation time Wednesday, March 29, 2017 7:00 AM WAT
Local time Wednesday, March 29, 2017 8:15 AM WAT
Flight conditions Visual Meteorological Conditions
Winds
Wind speed calm
Visibility 6.2 mi.
Sky condition
Ceiling unlimited
Sky clear
Temperature 77°F
Dewpoint 36°F
Altimeter 29.80 in.Hg
Derived measurements
Relative humidity 22%
Heat index 77°F
Density altitude 1705 ft.
Remarks
Ceiling and visibility OK.
No significant changes expected in the next two hours.
METAR FTTJ 290600Z 00000KT CAVOK 25/02 Q1009 NOSIG

Settings

Location code

InnerDrive.Weather 4.0.6144.1 Release CLR 4.0.30319.34209
Copyright ©2015 Inner Drive Technology. All rights reserved. Portions Copyright ©1986-2015 David Braverman.

Find weather

Site navigation


Skip Navigation Links

Place info

Page info

PayPal - The safer, easier way to pay online!

Return home.

Copyright ©2017 Inner Drive Technology. Purveyors of fine, hand-crafted computer software. Page printed 2017-03-29T07:15:10 UTC.